sensor_id;sensor_type;location;lat;lon;timestamp;pressure;altitude;pressure_sealevel;temperature;humidity
50166;BME280;36071;48.140;11.516;2023-06-14T00:04:22;95060.0;;;17.1;39.9
50166;BME280;36071;48.140;11.516;2023-06-14T00:09:22;95060.0;;;17.0;40.1
50166;BME280;36071;48.140;11.516;2023-06-14T00:19:22;95050.0;;;16.9;40.3
50166;BME280;36071;48.140;11.516;2023-06-14T00:24:22;95040.0;;;16.8;40.8
50166;BME280;36071;48.140;11.516;2023-06-14T00:29:22;95050.0;;;16.7;41.4
50166;BME280;36071;48.140;11.516;2023-06-14T00:34:22;95050.0;;;16.6;41.4
50166;BME280;36071;48.140;11.516;2023-06-14T00:39:22;95040.0;;;16.5;41.7
50166;BME280;36071;48.140;11.516;2023-06-14T00:44:22;95050.0;;;16.4;41.3
50166;BME280;36071;48.140;11.516;2023-06-14T00:49:22;95050.0;;;16.4;41.5
50166;BME280;36071;48.140;11.516;2023-06-14T00:54:22;95040.0;;;16.3;41.2
50166;BME280;36071;48.140;11.516;2023-06-14T00:59:22;95050.0;;;16.3;41.9
50166;BME280;36071;48.140;11.516;2023-06-14T01:04:22;95050.0;;;16.2;42.3
50166;BME280;36071;48.140;11.516;2023-06-14T01:09:24;95050.0;;;16.1;42.5
50166;BME280;36071;48.140;11.516;2023-06-14T01:14:22;95050.0;;;16.1;42.6
50166;BME280;36071;48.140;11.516;2023-06-14T01:19:22;95050.0;;;16.0;42.4
50166;BME280;36071;48.140;11.516;2023-06-14T01:24:22;95050.0;;;16.0;41.9
50166;BME280;36071;48.140;11.516;2023-06-14T01:29:22;95050.0;;;15.9;41.3
50166;BME280;36071;48.140;11.516;2023-06-14T01:34:22;95040.0;;;15.9;41.7
50166;BME280;36071;48.140;11.516;2023-06-14T01:39:22;95040.0;;;15.8;42.4
50166;BME280;36071;48.140;11.516;2023-06-14T01:44:23;95040.0;;;15.8;42.7
50166;BME280;36071;48.140;11.516;2023-06-14T01:49:22;95030.0;;;15.7;43.4
50166;BME280;36071;48.140;11.516;2023-06-14T01:54:22;95030.0;;;15.6;44.3
50166;BME280;36071;48.140;11.516;2023-06-14T01:59:22;95020.0;;;15.6;44.4
50166;BME280;36071;48.140;11.516;2023-06-14T02:04:22;95030.0;;;15.5;44.2
50166;BME280;36071;48.140;11.516;2023-06-14T02:09:22;95030.0;;;15.5;43.5
50166;BME280;36071;48.140;11.516;2023-06-14T02:14:22;95030.0;;;15.4;43.5
50166;BME280;36071;48.140;11.516;2023-06-14T02:19:22;95030.0;;;15.4;43.9
50166;BME280;36071;48.140;11.516;2023-06-14T02:24:22;95030.0;;;15.3;43.6
50166;BME280;36071;48.140;11.516;2023-06-14T02:29:22;95030.0;;;15.2;43.3
50166;BME280;36071;48.140;11.516;2023-06-14T02:34:22;95030.0;;;15.1;43.4
50166;BME280;36071;48.140;11.516;2023-06-14T02:39:24;95020.0;;;15.1;43.9
50166;BME280;36071;48.140;11.516;2023-06-14T02:44:24;95030.0;;;15.1;44.7
50166;BME280;36071;48.140;11.516;2023-06-14T02:49:22;95040.0;;;15.0;44.8
50166;BME280;36071;48.140;11.516;2023-06-14T02:54:22;95030.0;;;15.0;45.5
50166;BME280;36071;48.140;11.516;2023-06-14T02:59:22;95030.0;;;14.9;45.7
50166;BME280;36071;48.140;11.516;2023-06-14T03:04:22;95040.0;;;14.8;46.3
50166;BME280;36071;48.140;11.516;2023-06-14T03:09:22;95040.0;;;14.8;46.2
50166;BME280;36071;48.140;11.516;2023-06-14T03:14:22;95040.0;;;14.7;45.7
50166;BME280;36071;48.140;11.516;2023-06-14T03:19:22;95050.0;;;14.7;45.1
50166;BME280;36071;48.140;11.516;2023-06-14T03:24:22;95050.0;;;14.7;46.0
50166;BME280;36071;48.140;11.516;2023-06-14T03:29:22;95050.0;;;14.6;46.6
50166;BME280;36071;48.140;11.516;2023-06-14T03:34:22;95060.0;;;14.6;45.7
50166;BME280;36071;48.140;11.516;2023-06-14T03:39:22;95060.0;;;14.6;45.4
50166;BME280;36071;48.140;11.516;2023-06-14T03:44:22;95060.0;;;14.6;46.4
50166;BME280;36071;48.140;11.516;2023-06-14T03:49:22;95060.0;;;14.6;47.0
50166;BME280;36071;48.140;11.516;2023-06-14T03:54:22;95070.0;;;14.6;47.5
50166;BME280;36071;48.140;11.516;2023-06-14T03:59:22;95080.0;;;14.5;48.4
50166;BME280;36071;48.140;11.516;2023-06-14T04:04:22;95070.0;;;14.5;48.9
50166;BME280;36071;48.140;11.516;2023-06-14T04:09:23;95090.0;;;14.4;49.2
50166;BME280;36071;48.140;11.516;2023-06-14T04:14:22;95090.0;;;14.4;50.4
50166;BME280;36071;48.140;11.516;2023-06-14T04:19:22;95090.0;;;14.4;50.1
50166;BME280;36071;48.140;11.516;2023-06-14T04:24:22;95100.0;;;14.4;49.2
50166;BME280;36071;48.140;11.516;2023-06-14T04:29:22;95100.0;;;14.4;49.1
50166;BME280;36071;48.140;11.516;2023-06-14T04:34:22;95110.0;;;14.5;49.3
50166;BME280;36071;48.140;11.516;2023-06-14T04:39:22;95100.0;;;14.6;48.3
50166;BME280;36071;48.140;11.516;2023-06-14T04:44:23;95100.0;;;14.6;48.0
50166;BME280;36071;48.140;11.516;2023-06-14T04:49:22;95120.0;;;14.6;46.8
50166;BME280;36071;48.140;11.516;2023-06-14T04:54:22;95120.0;;;14.5;47.1
50166;BME280;36071;48.140;11.516;2023-06-14T04:59:23;95120.0;;;14.5;47.6
50166;BME280;36071;48.140;11.516;2023-06-14T05:04:22;95120.0;;;14.5;48.1
50166;BME280;36071;48.140;11.516;2023-06-14T05:09:22;95120.0;;;14.6;47.9
50166;BME280;36071;48.140;11.516;2023-06-14T05:14:22;95130.0;;;14.6;48.1
50166;BME280;36071;48.140;11.516;2023-06-14T05:19:22;95130.0;;;14.6;47.4
50166;BME280;36071;48.140;11.516;2023-06-14T05:24:23;95130.0;;;14.6;47.3
50166;BME280;36071;48.140;11.516;2023-06-14T05:29:22;95140.0;;;14.7;48.1
50166;BME280;36071;48.140;11.516;2023-06-14T05:34:22;95140.0;;;14.8;47.9
50166;BME280;36071;48.140;11.516;2023-06-14T05:39:25;95150.0;;;14.8;47.6
50166;BME280;36071;48.140;11.516;2023-06-14T05:44:22;95160.0;;;14.8;47.0
50166;BME280;36071;48.140;11.516;2023-06-14T05:49:22;95140.0;;;14.8;47.3
50166;BME280;36071;48.140;11.516;2023-06-14T05:54:22;95150.0;;;15.0;47.3
50166;BME280;36071;48.140;11.516;2023-06-14T05:59:22;95140.0;;;15.1;47.6
50166;BME280;36071;48.140;11.516;2023-06-14T06:04:22;95150.0;;;15.2;47.0
50166;BME280;36071;48.140;11.516;2023-06-14T06:09:22;95150.0;;;15.3;47.3
50166;BME280;36071;48.140;11.516;2023-06-14T06:14:22;95150.0;;;15.4;46.7
50166;BME280;36071;48.140;11.516;2023-06-14T06:19:24;95020.0;;;14.6;46.1
50166;BME280;36071;48.140;11.516;2023-06-14T06:24:22;95160.0;;;15.6;46.0
50166;BME280;36071;48.140;11.516;2023-06-14T06:29:22;95170.0;;;15.7;45.3
50166;BME280;36071;48.140;11.516;2023-06-14T06:34:22;95170.0;;;15.7;45.6
50166;BME280;36071;48.140;11.516;2023-06-14T06:39:22;95170.0;;;15.8;45.2
50166;BME280;36071;48.140;11.516;2023-06-14T06:44:22;95180.0;;;16.0;45.1
50166;BME280;36071;48.140;11.516;2023-06-14T06:49:22;95180.0;;;16.2;46.1
50166;BME280;36071;48.140;11.516;2023-06-14T07:09:22;95180.0;;;16.6;45.5
50166;BME280;36071;48.140;11.516;2023-06-14T07:14:22;95180.0;;;16.8;46.0
50166;BME280;36071;48.140;11.516;2023-06-14T07:19:22;95190.0;;;16.9;44.9
50166;BME280;36071;48.140;11.516;2023-06-14T07:24:24;95190.0;;;17.0;44.0
50166;BME280;36071;48.140;11.516;2023-06-14T07:29:22;95200.0;;;17.1;43.6
50166;BME280;36071;48.140;11.516;2023-06-14T07:34:22;95200.0;;;17.2;45.0
50166;BME280;36071;48.140;11.516;2023-06-14T07:39:22;95210.0;;;17.4;44.6
50166;BME280;36071;48.140;11.516;2023-06-14T07:44:22;95210.0;;;17.6;44.1
50166;BME280;36071;48.140;11.516;2023-06-14T07:49:22;95210.0;;;17.6;41.8
50166;BME280;36071;48.140;11.516;2023-06-14T07:54:22;95210.0;;;17.8;41.3
50166;BME280;36071;48.140;11.516;2023-06-14T07:59:22;95210.0;;;17.9;42.4
50166;BME280;36071;48.140;11.516;2023-06-14T08:04:22;95200.0;;;18.1;41.9
50166;BME280;36071;48.140;11.516;2023-06-14T08:09:22;95190.0;;;18.3;42.0
50166;BME280;36071;48.140;11.516;2023-06-14T08:14:22;95200.0;;;18.4;41.2
50166;BME280;36071;48.140;11.516;2023-06-14T08:19:22;95190.0;;;18.6;38.5
50166;BME280;36071;48.140;11.516;2023-06-14T08:24:22;95210.0;;;18.9;38.0
50166;BME280;36071;48.140;11.516;2023-06-14T08:29:22;95200.0;;;19.3;37.1
50166;BME280;36071;48.140;11.516;2023-06-14T08:34:22;95210.0;;;19.9;35.2
50166;BME280;36071;48.140;11.516;2023-06-14T08:39:22;95220.0;;;20.4;34.3
50166;BME280;36071;48.140;11.516;2023-06-14T08:44:22;95220.0;;;21.0;32.9
50166;BME280;36071;48.140;11.516;2023-06-14T08:49:22;95220.0;;;21.6;32.7
50166;BME280;36071;48.140;11.516;2023-06-14T08:54:22;95220.0;;;22.2;31.2
50166;BME280;36071;48.140;11.516;2023-06-14T08:59:23;95220.0;;;22.7;30.9
50166;BME280;36071;48.140;11.516;2023-06-14T09:04:22;95220.0;;;23.0;30.7
50166;BME280;36071;48.140;11.516;2023-06-14T09:09:22;95210.0;;;23.1;30.2
50166;BME280;36071;48.140;11.516;2023-06-14T09:14:23;95200.0;;;23.1;30.2
50166;BME280;36071;48.140;11.516;2023-06-14T09:19:23;95210.0;;;23.6;30.6
50166;BME280;36071;48.140;11.516;2023-06-14T09:24:23;95220.0;;;24.2;29.4
50166;BME280;36071;48.140;11.516;2023-06-14T09:29:22;95220.0;;;24.4;27.7
50166;BME280;36071;48.140;11.516;2023-06-14T09:34:24;95220.0;;;24.8;29.8
50166;BME280;36071;48.140;11.516;2023-06-14T09:39:22;95220.0;;;25.1;28.6
50166;BME280;36071;48.140;11.516;2023-06-14T09:44:22;95210.0;;;24.9;28.8
50166;BME280;36071;48.140;11.516;2023-06-14T09:49:22;95230.0;;;25.0;29.0
50166;BME280;36071;48.140;11.516;2023-06-14T09:54:22;95220.0;;;25.8;28.5
50166;BME280;36071;48.140;11.516;2023-06-14T09:59:26;95220.0;;;26.3;27.5
50166;BME280;36071;48.140;11.516;2023-06-14T10:04:27;95230.0;;;25.8;27.7
50166;BME280;36071;48.140;11.516;2023-06-14T10:09:24;95210.0;;;25.2;30.3
50166;BME280;36071;48.140;11.516;2023-06-14T10:14:22;95220.0;;;25.6;28.2
50166;BME280;36071;48.140;11.516;2023-06-14T10:19:24;95220.0;;;26.1;27.9
50166;BME280;36071;48.140;11.516;2023-06-14T10:24:25;95220.0;;;26.1;28.8
50166;BME280;36071;48.140;11.516;2023-06-14T10:29:22;95210.0;;;26.0;28.5
50166;BME280;36071;48.140;11.516;2023-06-14T10:34:23;95210.0;;;25.3;29.2
50166;BME280;36071;48.140;11.516;2023-06-14T10:39:22;95220.0;;;24.4;29.7
50166;BME280;36071;48.140;11.516;2023-06-14T10:44:38;95200.0;;;25.0;31.4
50166;BME280;36071;48.140;11.516;2023-06-14T10:49:35;95210.0;;;25.9;29.7
50166;BME280;36071;48.140;11.516;2023-06-14T10:54:22;95210.0;;;26.5;28.1
50166;BME280;36071;48.140;11.516;2023-06-14T10:59:22;95220.0;;;27.1;28.4
50166;BME280;36071;48.140;11.516;2023-06-14T11:04:23;95200.0;;;27.4;27.9
50166;BME280;36071;48.140;11.516;2023-06-14T11:09:34;95200.0;;;27.7;26.9
50166;BME280;36071;48.140;11.516;2023-06-14T11:14:22;95200.0;;;27.9;28.3
50166;BME280;36071;48.140;11.516;2023-06-14T11:19:22;95200.0;;;28.0;26.4
50166;BME280;36071;48.140;11.516;2023-06-14T11:24:24;95200.0;;;28.2;26.5
50166;BME280;36071;48.140;11.516;2023-06-14T11:29:22;95200.0;;;27.8;25.8
50166;BME280;36071;48.140;11.516;2023-06-14T11:34:22;95200.0;;;28.0;25.5
50166;BME280;36071;48.140;11.516;2023-06-14T11:39:24;95210.0;;;27.6;25.4
50166;BME280;36071;48.140;11.516;2023-06-14T11:44:24;95190.0;;;27.7;25.6
50166;BME280;36071;48.140;11.516;2023-06-14T11:49:23;95190.0;;;27.4;24.3
50166;BME280;36071;48.140;11.516;2023-06-14T11:54:22;95190.0;;;27.3;24.3
50166;BME280;36071;48.140;11.516;2023-06-14T11:59:23;95200.0;;;27.6;24.8
50166;BME280;36071;48.140;11.516;2023-06-14T12:04:23;95190.0;;;27.5;23.8
50166;BME280;36071;48.140;11.516;2023-06-14T12:09:22;95190.0;;;27.6;24.5
50166;BME280;36071;48.140;11.516;2023-06-14T12:14:27;95190.0;;;27.7;24.0
50166;BME280;36071;48.140;11.516;2023-06-14T12:19:25;95180.0;;;27.7;24.3
50166;BME280;36071;48.140;11.516;2023-06-14T12:24:27;95180.0;;;27.6;23.8
50166;BME280;36071;48.140;11.516;2023-06-14T12:29:23;95190.0;;;27.1;24.2
50166;BME280;36071;48.140;11.516;2023-06-14T12:34:22;95180.0;;;26.9;24.1
50166;BME280;36071;48.140;11.516;2023-06-14T12:39:22;95170.0;;;27.0;25.1
50166;BME280;36071;48.140;11.516;2023-06-14T12:44:22;95180.0;;;26.9;24.7
50166;BME280;36071;48.140;11.516;2023-06-14T12:49:24;95180.0;;;26.0;24.5
50166;BME280;36071;48.140;11.516;2023-06-14T12:54:22;95180.0;;;25.8;26.2
50166;BME280;36071;48.140;11.516;2023-06-14T12:59:22;95180.0;;;26.2;26.0
50166;BME280;36071;48.140;11.516;2023-06-14T13:04:22;95180.0;;;26.3;25.9
50166;BME280;36071;48.140;11.516;2023-06-14T13:09:22;95190.0;;;26.3;24.9
50166;BME280;36071;48.140;11.516;2023-06-14T13:14:22;95190.0;;;26.0;25.4
50166;BME280;36071;48.140;11.516;2023-06-14T13:19:22;95190.0;;;25.7;26.4
50166;BME280;36071;48.140;11.516;2023-06-14T13:24:22;95190.0;;;25.8;27.0
50166;BME280;36071;48.140;11.516;2023-06-14T13:29:23;95190.0;;;26.2;27.1
50166;BME280;36071;48.140;11.516;2023-06-14T13:34:22;95190.0;;;26.6;27.1
50166;BME280;36071;48.140;11.516;2023-06-14T13:39:24;95180.0;;;26.9;26.2
50166;BME280;36071;48.140;11.516;2023-06-14T13:44:22;95170.0;;;27.2;26.0
50166;BME280;36071;48.140;11.516;2023-06-14T13:49:22;95180.0;;;27.2;24.4
50166;BME280;36071;48.140;11.516;2023-06-14T13:54:22;95170.0;;;27.3;25.9
50166;BME280;36071;48.140;11.516;2023-06-14T13:59:22;95170.0;;;27.1;25.6
50166;BME280;36071;48.140;11.516;2023-06-14T14:04:22;95170.0;;;27.1;24.5
50166;BME280;36071;48.140;11.516;2023-06-14T14:09:22;95170.0;;;27.1;25.3
50166;BME280;36071;48.140;11.516;2023-06-14T14:14:23;95180.0;;;26.9;25.2
50166;BME280;36071;48.140;11.516;2023-06-14T14:19:22;95180.0;;;26.8;24.9
50166;BME280;36071;48.140;11.516;2023-06-14T14:24:43;95180.0;;;26.5;24.3
50166;BME280;36071;48.140;11.516;2023-06-14T14:29:22;95170.0;;;26.5;24.1
50166;BME280;36071;48.140;11.516;2023-06-14T14:34:22;95170.0;;;26.4;24.7
50166;BME280;36071;48.140;11.516;2023-06-14T14:39:22;95180.0;;;26.3;25.7
50166;BME280;36071;48.140;11.516;2023-06-14T14:44:22;95190.0;;;26.1;25.4
50166;BME280;36071;48.140;11.516;2023-06-14T14:49:22;95190.0;;;25.8;25.5
50166;BME280;36071;48.140;11.516;2023-06-14T14:54:22;95190.0;;;25.6;25.7
50166;BME280;36071;48.140;11.516;2023-06-14T14:59:23;95190.0;;;25.4;26.8
50166;BME280;36071;48.140;11.516;2023-06-14T15:04:22;95190.0;;;25.2;26.4
50166;BME280;36071;48.140;11.516;2023-06-14T15:09:23;95160.0;;;24.9;27.1
50166;BME280;36071;48.140;11.516;2023-06-14T15:14:22;95190.0;;;24.9;26.9
50166;BME280;36071;48.140;11.516;2023-06-14T15:19:22;95200.0;;;25.1;27.4
50166;BME280;36071;48.140;11.516;2023-06-14T15:24:22;95200.0;;;25.2;27.5
50166;BME280;36071;48.140;11.516;2023-06-14T15:29:22;95200.0;;;24.9;27.3
50166;BME280;36071;48.140;11.516;2023-06-14T15:34:22;95200.0;;;24.9;27.8
50166;BME280;36071;48.140;11.516;2023-06-14T15:39:22;95190.0;;;24.7;27.5
50166;BME280;36071;48.140;11.516;2023-06-14T15:44:22;95200.0;;;24.5;28.0
50166;BME280;36071;48.140;11.516;2023-06-14T15:49:22;95200.0;;;24.5;27.9
50166;BME280;36071;48.140;11.516;2023-06-14T15:54:22;95200.0;;;24.4;27.4
50166;BME280;36071;48.140;11.516;2023-06-14T15:59:24;95200.0;;;24.3;27.5
50166;BME280;36071;48.140;11.516;2023-06-14T16:04:22;95200.0;;;24.2;27.4
50166;BME280;36071;48.140;11.516;2023-06-14T16:09:23;95200.0;;;24.1;28.1
50166;BME280;36071;48.140;11.516;2023-06-14T16:14:22;95210.0;;;24.1;28.7
50166;BME280;36071;48.140;11.516;2023-06-14T16:19:23;95210.0;;;24.0;29.6
50166;BME280;36071;48.140;11.516;2023-06-14T16:24:22;95210.0;;;23.9;29.8
50166;BME280;36071;48.140;11.516;2023-06-14T16:29:22;95210.0;;;24.0;29.9
50166;BME280;36071;48.140;11.516;2023-06-14T16:34:22;95210.0;;;24.0;29.7
50166;BME280;36071;48.140;11.516;2023-06-14T16:39:23;95210.0;;;23.9;29.3
50166;BME280;36071;48.140;11.516;2023-06-14T16:44:22;95220.0;;;23.8;29.2
50166;BME280;36071;48.140;11.516;2023-06-14T16:49:23;95230.0;;;23.8;29.8
50166;BME280;36071;48.140;11.516;2023-06-14T16:54:22;95220.0;;;23.7;29.7
50166;BME280;36071;48.140;11.516;2023-06-14T16:59:22;95230.0;;;23.7;29.6
50166;BME280;36071;48.140;11.516;2023-06-14T17:04:23;95240.0;;;23.5;30.3
50166;BME280;36071;48.140;11.516;2023-06-14T17:09:23;95250.0;;;23.5;30.4
50166;BME280;36071;48.140;11.516;2023-06-14T17:14:22;95250.0;;;23.3;30.0
50166;BME280;36071;48.140;11.516;2023-06-14T17:19:24;95250.0;;;23.2;30.8
50166;BME280;36071;48.140;11.516;2023-06-14T17:24:22;95260.0;;;23.1;30.4
50166;BME280;36071;48.140;11.516;2023-06-14T17:29:22;95260.0;;;23.0;31.0
50166;BME280;36071;48.140;11.516;2023-06-14T17:34:22;95270.0;;;22.9;31.2
50166;BME280;36071;48.140;11.516;2023-06-14T17:39:23;95280.0;;;22.9;31.7
50166;BME280;36071;48.140;11.516;2023-06-14T17:44:22;95280.0;;;22.8;31.9
50166;BME280;36071;48.140;11.516;2023-06-14T17:49:22;95280.0;;;22.8;31.8
50166;BME280;36071;48.140;11.516;2023-06-14T17:54:23;95280.0;;;22.8;31.9
50166;BME280;36071;48.140;11.516;2023-06-14T17:59:22;95280.0;;;22.7;32.4
50166;BME280;36071;48.140;11.516;2023-06-14T18:04:22;95290.0;;;22.6;32.8
50166;BME280;36071;48.140;11.516;2023-06-14T18:09:23;95300.0;;;22.5;32.9
50166;BME280;36071;48.140;11.516;2023-06-14T18:14:22;95300.0;;;22.5;33.0
50166;BME280;36071;48.140;11.516;2023-06-14T18:19:22;95310.0;;;22.5;33.1
50166;BME280;36071;48.140;11.516;2023-06-14T18:24:22;95310.0;;;22.4;33.0
50166;BME280;36071;48.140;11.516;2023-06-14T18:29:22;95310.0;;;22.3;33.0
50166;BME280;36071;48.140;11.516;2023-06-14T18:34:23;95310.0;;;22.2;33.6
50166;BME280;36071;48.140;11.516;2023-06-14T18:39:22;95320.0;;;22.1;33.5
50166;BME280;36071;48.140;11.516;2023-06-14T18:44:23;95320.0;;;22.0;33.6
50166;BME280;36071;48.140;11.516;2023-06-14T18:49:22;95320.0;;;21.9;34.1
50166;BME280;36071;48.140;11.516;2023-06-14T18:54:22;95340.0;;;21.9;34.3
50166;BME280;36071;48.140;11.516;2023-06-14T18:59:23;95340.0;;;21.8;33.7
50166;BME280;36071;48.140;11.516;2023-06-14T19:04:22;95350.0;;;21.7;34.2
50166;BME280;36071;48.140;11.516;2023-06-14T19:09:23;95350.0;;;21.6;34.1
50166;BME280;36071;48.140;11.516;2023-06-14T19:14:23;95350.0;;;21.6;34.5
50166;BME280;36071;48.140;11.516;2023-06-14T19:19:22;95360.0;;;21.5;34.3
50166;BME280;36071;48.140;11.516;2023-06-14T19:24:22;95360.0;;;21.4;34.4
50166;BME280;36071;48.140;11.516;2023-06-14T19:29:28;95360.0;;;21.4;34.8
50166;BME280;36071;48.140;11.516;2023-06-14T19:34:22;95370.0;;;21.3;35.0
50166;BME280;36071;48.140;11.516;2023-06-14T19:39:22;95380.0;;;21.3;35.3
50166;BME280;36071;48.140;11.516;2023-06-14T19:44:23;95390.0;;;21.2;34.8
50166;BME280;36071;48.140;11.516;2023-06-14T19:49:23;95390.0;;;21.1;35.6
50166;BME280;36071;48.140;11.516;2023-06-14T19:54:23;95400.0;;;21.0;35.7
50166;BME280;36071;48.140;11.516;2023-06-14T19:59:23;95400.0;;;21.0;36.1
50166;BME280;36071;48.140;11.516;2023-06-14T20:04:23;95410.0;;;21.0;36.2
50166;BME280;36071;48.140;11.516;2023-06-14T20:09:22;95410.0;;;20.9;36.1
50166;BME280;36071;48.140;11.516;2023-06-14T20:14:23;95400.0;;;20.8;36.7
50166;BME280;36071;48.140;11.516;2023-06-14T20:19:23;95400.0;;;20.8;37.0
50166;BME280;36071;48.140;11.516;2023-06-14T20:24:23;95410.0;;;20.7;37.0
50166;BME280;36071;48.140;11.516;2023-06-14T20:29:23;95410.0;;;20.6;37.2
50166;BME280;36071;48.140;11.516;2023-06-14T20:34:23;95400.0;;;20.6;37.6
50166;BME280;36071;48.140;11.516;2023-06-14T20:44:22;95410.0;;;20.5;37.8
50166;BME280;36071;48.140;11.516;2023-06-14T20:49:23;95410.0;;;20.4;37.7
50166;BME280;36071;48.140;11.516;2023-06-14T20:54:22;95410.0;;;20.4;38.0
50166;BME280;36071;48.140;11.516;2023-06-14T20:59:24;95410.0;;;20.3;38.3
50166;BME280;36071;48.140;11.516;2023-06-14T21:04:23;95400.0;;;20.2;38.3
50166;BME280;36071;48.140;11.516;2023-06-14T21:09:23;95410.0;;;20.1;38.7
50166;BME280;36071;48.140;11.516;2023-06-14T21:14:22;95410.0;;;20.1;39.1
50166;BME280;36071;48.140;11.516;2023-06-14T21:19:23;95410.0;;;20.0;38.9
50166;BME280;36071;48.140;11.516;2023-06-14T21:24:23;95410.0;;;20.0;39.4
50166;BME280;36071;48.140;11.516;2023-06-14T21:29:23;95410.0;;;19.9;39.6
50166;BME280;36071;48.140;11.516;2023-06-14T21:34:23;95410.0;;;19.9;39.8
50166;BME280;36071;48.140;11.516;2023-06-14T21:39:23;95410.0;;;19.8;39.8
50166;BME280;36071;48.140;11.516;2023-06-14T21:44:23;95420.0;;;19.7;40.0
50166;BME280;36071;48.140;11.516;2023-06-14T21:49:23;95420.0;;;19.7;40.3
50166;BME280;36071;48.140;11.516;2023-06-14T21:54:23;95410.0;;;19.6;40.4
50166;BME280;36071;48.140;11.516;2023-06-14T21:59:23;95430.0;;;19.5;40.5
50166;BME280;36071;48.140;11.516;2023-06-14T22:04:23;95420.0;;;19.5;40.7
50166;BME280;36071;48.140;11.516;2023-06-14T22:09:23;95430.0;;;19.4;41.0
50166;BME280;36071;48.140;11.516;2023-06-14T22:14:23;95410.0;;;19.4;41.4
50166;BME280;36071;48.140;11.516;2023-06-14T22:19:22;95420.0;;;19.3;41.6
50166;BME280;36071;48.140;11.516;2023-06-14T22:24:23;95410.0;;;19.3;41.6
50166;BME280;36071;48.140;11.516;2023-06-14T22:29:23;95420.0;;;19.1;41.6
50166;BME280;36071;48.140;11.516;2023-06-14T22:34:23;95430.0;;;19.0;42.0
50166;BME280;36071;48.140;11.516;2023-06-14T22:39:23;95420.0;;;19.0;42.2
50166;BME280;36071;48.140;11.516;2023-06-14T22:44:23;95420.0;;;18.9;42.5
50166;BME280;36071;48.140;11.516;2023-06-14T22:49:23;95420.0;;;18.8;42.6
50166;BME280;36071;48.140;11.516;2023-06-14T22:54:23;95420.0;;;18.8;42.7
50166;BME280;36071;48.140;11.516;2023-06-14T22:59:23;95400.0;;;18.5;43.2
50166;BME280;36071;48.140;11.516;2023-06-14T23:04:23;95410.0;;;18.5;43.3
50166;BME280;36071;48.140;11.516;2023-06-14T23:09:23;95410.0;;;18.5;43.6
50166;BME280;36071;48.140;11.516;2023-06-14T23:14:23;95410.0;;;18.5;43.5
50166;BME280;36071;48.140;11.516;2023-06-14T23:19:23;95400.0;;;18.4;43.8
50166;BME280;36071;48.140;11.516;2023-06-14T23:24:23;95410.0;;;18.4;43.9
50166;BME280;36071;48.140;11.516;2023-06-14T23:29:23;95400.0;;;18.4;44.1
50166;BME280;36071;48.140;11.516;2023-06-14T23:34:23;95390.0;;;18.4;44.2
50166;BME280;36071;48.140;11.516;2023-06-14T23:39:23;95400.0;;;18.3;44.2
50166;BME280;36071;48.140;11.516;2023-06-14T23:44:23;95400.0;;;18.3;44.4
50166;BME280;36071;48.140;11.516;2023-06-14T23:49:23;95390.0;;;18.2;44.5
50166;BME280;36071;48.140;11.516;2023-06-14T23:54:23;95400.0;;;18.2;44.7
50166;BME280;36071;48.140;11.516;2023-06-14T23:59:22;95400.0;;;18.2;44.9
